createdAt,value
2022-10-16T00:00:43.498Z,12.91
2022-10-16T00:03:26.771Z,12.92
2022-10-16T00:06:08.916Z,12.92
2022-10-16T00:08:49.641Z,12.92
2022-10-16T00:11:29.147Z,12.90
2022-10-16T00:14:08.852Z,12.90
2022-10-16T00:16:49.211Z,12.85
2022-10-16T00:19:31.439Z,12.84
2022-10-16T00:22:12.855Z,12.85
2022-10-16T00:24:52.442Z,12.81
2022-10-16T00:27:43.860Z,12.81
2022-10-16T00:30:24.250Z,12.76
2022-10-16T00:33:03.465Z,12.78
2022-10-16T00:35:43.407Z,12.79
2022-10-16T00:38:25.107Z,12.83
2022-10-16T00:41:06.888Z,12.83
2022-10-16T00:43:46.597Z,12.82
2022-10-16T00:46:26.377Z,12.88
2022-10-16T00:49:08.875Z,12.88
2022-10-16T00:51:49.130Z,12.91
2022-10-16T00:54:28.921Z,12.95
2022-10-16T00:57:08.341Z,12.95
2022-10-16T00:59:47.971Z,12.94
2022-10-16T01:02:27.976Z,12.94
2022-10-16T01:05:10.290Z,12.98
2022-10-16T01:07:50.957Z,12.97
2022-10-16T01:10:33.439Z,13.05
2022-10-16T01:13:16.567Z,13.08
2022-10-16T01:16:01.004Z,13.05
2022-10-16T01:18:41.836Z,13.07
2022-10-16T01:21:42.168Z,13.04
2022-10-16T01:24:24.795Z,13.02
2022-10-16T01:27:09.941Z,12.97
2022-10-16T01:29:52.280Z,12.95
2022-10-16T01:32:33.384Z,12.94
2022-10-16T01:35:15.575Z,12.93
2022-10-16T01:37:54.268Z,12.92
2022-10-16T01:40:33.492Z,12.89
2022-10-16T01:43:13.423Z,12.88
2022-10-16T01:45:52.652Z,12.89
2022-10-16T01:48:32.502Z,12.88
2022-10-16T01:51:15.567Z,12.84
2022-10-16T01:53:56.013Z,12.83
2022-10-16T01:56:35.141Z,12.81
2022-10-16T01:59:17.766Z,12.78
2022-10-16T02:01:57.886Z,12.73
2022-10-16T02:04:40.792Z,12.75
2022-10-16T02:07:22.805Z,12.66
2022-10-16T02:10:04.239Z,12.67
2022-10-16T02:12:44.484Z,12.63
2022-10-16T02:15:25.385Z,12.64
2022-10-16T02:18:05.121Z,12.62
2022-10-16T02:21:04.515Z,12.59
2022-10-16T02:23:44.878Z,12.62
2022-10-16T02:26:25.921Z,12.61
2022-10-16T02:29:07.754Z,12.69
2022-10-16T02:31:49.140Z,12.71
2022-10-16T02:34:29.342Z,12.70
2022-10-16T02:37:09.722Z,12.71
2022-10-16T02:39:48.771Z,12.72
2022-10-16T02:42:31.594Z,12.69
2022-10-16T02:45:13.600Z,12.68
2022-10-16T02:47:52.262Z,12.66
2022-10-16T02:50:30.438Z,12.67
2022-10-16T02:53:11.373Z,12.66
2022-10-16T02:55:52.844Z,12.66
2022-10-16T02:58:32.251Z,12.61
2022-10-16T03:01:17.589Z,12.62
2022-10-16T03:03:56.724Z,12.61
2022-10-16T03:06:38.530Z,12.62
2022-10-16T03:09:19.890Z,12.63
2022-10-16T03:12:12.960Z,12.60
2022-10-16T03:15:11.973Z,12.58
2022-10-16T03:17:51.507Z,12.61
2022-10-16T03:20:31.297Z,12.58
2022-10-16T03:23:11.193Z,12.54
2022-10-16T03:25:50.126Z,12.50
2022-10-16T03:28:31.204Z,12.48
2022-10-16T03:31:10.528Z,12.45
2022-10-16T03:33:50.285Z,12.41
2022-10-16T03:36:30.428Z,12.37
2022-10-16T03:39:11.980Z,12.34
2022-10-16T03:41:51.307Z,12.29
2022-10-16T03:44:31.178Z,12.27
2022-10-16T03:47:10.954Z,12.22
2022-10-16T03:49:51.878Z,12.15
2022-10-16T03:52:30.580Z,12.12
2022-10-16T03:55:12.382Z,12.05
2022-10-16T03:57:51.817Z,11.99
2022-10-16T04:00:31.605Z,11.94
2022-10-16T04:03:11.396Z,11.91
2022-10-16T04:05:51.316Z,11.93
2022-10-16T04:08:35.135Z,11.97
2022-10-16T04:11:25.796Z,12.01
2022-10-16T04:14:07.589Z,11.98
2022-10-16T04:16:46.967Z,12.00
2022-10-16T04:19:28.842Z,11.97
2022-10-16T04:22:07.407Z,11.99
2022-10-16T04:24:47.619Z,11.97
2022-10-16T04:27:32.190Z,11.95
2022-10-16T04:30:22.617Z,11.96
2022-10-16T04:33:02.424Z,11.98
2022-10-16T04:35:44.506Z,12.03
2022-10-16T04:38:25.636Z,12.06
2022-10-16T04:41:05.156Z,12.14
2022-10-16T04:43:44.814Z,12.14
2022-10-16T04:46:24.652Z,12.17
2022-10-16T04:49:04.412Z,12.17
2022-10-16T04:51:44.276Z,12.17
2022-10-16T04:54:27.129Z,12.16
2022-10-16T04:57:07.073Z,12.22
2022-10-16T04:59:48.928Z,12.20
2022-10-16T05:02:28.399Z,12.17
2022-10-16T05:05:09.606Z,12.17
2022-10-16T05:07:50.485Z,12.15
2022-10-16T05:10:31.334Z,12.15
2022-10-16T05:13:26.679Z,12.19
2022-10-16T05:16:07.877Z,12.18
2022-10-16T05:18:53.262Z,12.14
2022-10-16T05:21:39.449Z,12.14
2022-10-16T05:24:20.770Z,12.14
2022-10-16T05:27:01.734Z,12.18
2022-10-16T05:29:57.471Z,12.17
2022-10-16T05:32:48.517Z,12.20
2022-10-16T05:35:30.307Z,12.28
2022-10-16T05:38:11.586Z,12.33
2022-10-16T05:40:56.247Z,12.43
2022-10-16T05:43:37.377Z,12.44
2022-10-16T05:46:18.859Z,12.50
2022-10-16T05:49:19.389Z,12.52
2022-10-16T05:51:59.757Z,12.58
2022-10-16T05:54:40.129Z,12.63
2022-10-16T05:57:21.392Z,12.63
2022-10-16T06:00:21.202Z,12.63
2022-10-16T06:03:03.566Z,12.70
2022-10-16T06:05:57.391Z,12.73
2022-10-16T06:08:43.585Z,12.73
2022-10-16T06:11:38.545Z,12.76
2022-10-16T06:14:39.188Z,12.78
2022-10-16T06:18:01.610Z,12.78
2022-10-16T06:20:50.512Z,12.83
2022-10-16T06:23:34.325Z,12.91
2022-10-16T06:26:25.271Z,12.97
2022-10-16T06:29:18.586Z,13.00
2022-10-16T06:32:00.990Z,13.04
2022-10-16T06:35:11.556Z,13.09
2022-10-16T06:37:52.280Z,13.16
2022-10-16T06:40:31.717Z,13.22
2022-10-16T06:43:11.531Z,13.31
2022-10-16T06:45:57.033Z,13.41
2022-10-16T06:48:44.413Z,13.47
2022-10-16T06:51:37.935Z,13.54
2022-10-16T06:54:42.586Z,13.65
2022-10-16T06:57:26.450Z,13.74
2022-10-16T07:00:12.097Z,13.78
2022-10-16T07:02:51.160Z,13.79
2022-10-16T07:05:31.769Z,13.86
2022-10-16T07:08:24.648Z,13.93
2022-10-16T07:11:07.402Z,13.94
2022-10-16T07:13:52.641Z,13.98
2022-10-16T07:16:37.480Z,13.98
2022-10-16T07:20:18.716Z,14.06
2022-10-16T07:23:00.655Z,14.07
2022-10-16T07:25:41.575Z,14.09
2022-10-16T07:28:23.914Z,14.17
2022-10-16T07:31:05.367Z,14.18
2022-10-16T07:33:45.622Z,14.24
2022-10-16T07:36:27.903Z,14.32
2022-10-16T07:39:07.585Z,14.39
2022-10-16T07:41:47.731Z,14.51
2022-10-16T07:44:30.029Z,14.59
2022-10-16T07:47:09.897Z,14.67
2022-10-16T07:49:53.218Z,14.81
2022-10-16T07:53:04.959Z,14.91
2022-10-16T07:55:58.264Z,15.00
2022-10-16T07:59:05.533Z,15.11
2022-10-16T08:12:15.696Z,15.53
2022-10-16T08:15:07.737Z,15.51
2022-10-16T08:18:08.465Z,15.57
2022-10-16T08:20:51.573Z,15.59
2022-10-16T08:23:35.258Z,15.54
2022-10-16T08:26:17.346Z,15.55
2022-10-16T08:28:57.858Z,15.59
2022-10-16T08:31:40.722Z,15.58
2022-10-16T08:34:28.555Z,15.69
2022-10-16T08:37:49.925Z,15.76
2022-10-16T08:40:32.022Z,15.83
2022-10-16T08:43:14.229Z,15.90
2022-10-16T08:46:10.715Z,15.95
2022-10-16T08:48:50.443Z,15.96
2022-10-16T08:51:33.050Z,16.03
2022-10-16T08:54:18.068Z,16.07
2022-10-16T08:56:59.909Z,16.11
2022-10-16T08:59:40.737Z,16.18
2022-10-16T09:02:33.502Z,16.22
2022-10-16T09:05:18.402Z,16.27
2022-10-16T09:10:43.434Z,16.38
2022-10-16T09:13:23.380Z,16.43
2022-10-16T09:16:03.408Z,16.51
2022-10-16T09:18:45.241Z,16.54
2022-10-16T09:21:25.596Z,16.58
2022-10-16T09:24:09.075Z,16.66
2022-10-16T09:26:47.829Z,16.76
2022-10-16T09:29:27.736Z,16.91
2022-10-16T09:32:11.482Z,17.04
2022-10-16T09:34:52.901Z,17.13
2022-10-16T09:37:31.921Z,17.20
2022-10-16T09:40:15.834Z,17.48
2022-10-16T09:42:54.920Z,17.73
2022-10-16T09:45:34.553Z,18.00
2022-10-16T09:48:14.846Z,18.31
2022-10-16T09:51:04.743Z,18.62
2022-10-16T09:53:44.371Z,18.82
2022-10-16T09:56:25.988Z,18.85
2022-10-16T09:59:05.441Z,18.87
2022-10-16T10:01:45.241Z,18.84
2022-10-16T10:14:49.771Z,18.67
2022-10-16T10:17:29.044Z,18.89
2022-10-16T10:20:28.323Z,18.94
2022-10-16T10:23:21.435Z,19.08
2022-10-16T10:26:03.707Z,19.11
2022-10-16T10:28:49.825Z,19.28
2022-10-16T10:31:31.326Z,19.45
2022-10-16T10:34:14.732Z,19.37
2022-10-16T10:36:55.235Z,19.52
2022-10-16T10:39:34.699Z,19.55
2022-10-16T10:42:17.473Z,19.81
2022-10-16T10:45:10.520Z,19.97
2022-10-16T10:47:57.098Z,20.30
2022-10-16T10:50:39.273Z,20.25
2022-10-16T10:53:23.856Z,20.49
2022-10-16T10:56:08.409Z,20.68
2022-10-16T10:59:01.600Z,20.51
2022-10-16T11:01:43.021Z,20.61
2022-10-16T11:04:34.950Z,20.62
2022-10-16T11:07:19.577Z,20.86
2022-10-16T11:09:59.100Z,20.98
2022-10-16T11:12:59.274Z,21.34
2022-10-16T11:15:41.230Z,21.63
2022-10-16T11:18:21.300Z,21.93
2022-10-16T11:21:03.659Z,22.14
2022-10-16T11:23:44.004Z,22.38
2022-10-16T11:26:25.525Z,22.57
2022-10-16T11:29:05.630Z,22.38
2022-10-16T11:31:48.445Z,22.66
2022-10-16T11:34:34.240Z,22.43
2022-10-16T11:37:18.977Z,22.41
2022-10-16T11:40:06.785Z,22.63
2022-10-16T11:42:47.368Z,22.80
2022-10-16T11:45:29.050Z,22.46
2022-10-16T11:48:09.694Z,22.39
2022-10-16T11:50:52.229Z,22.72
2022-10-16T11:53:37.608Z,22.94
2022-10-16T11:56:19.689Z,22.86
2022-10-16T11:59:03.063Z,22.81
2022-10-16T12:01:42.625Z,22.88
2022-10-16T12:04:29.406Z,22.92
2022-10-16T12:07:09.295Z,22.79
2022-10-16T12:09:49.225Z,22.45
2022-10-16T12:12:31.700Z,22.67
2022-10-16T12:15:40.487Z,22.67
2022-10-16T12:18:25.195Z,22.74
2022-10-16T12:21:07.610Z,23.06
2022-10-16T12:23:50.634Z,23.28
2022-10-16T12:26:31.395Z,23.49
2022-10-16T12:29:23.711Z,23.86
2022-10-16T12:32:08.242Z,23.99
2022-10-16T12:34:49.810Z,24.19
2022-10-16T12:37:33.301Z,24.08
2022-10-16T12:40:20.124Z,24.02
2022-10-16T12:43:01.234Z,23.87
2022-10-16T12:45:40.241Z,24.05
2022-10-16T12:48:26.499Z,24.00
2022-10-16T12:51:13.539Z,23.67
2022-10-16T12:54:01.836Z,23.77
2022-10-16T12:56:43.565Z,23.43
2022-10-16T12:59:26.126Z,23.59
2022-10-16T13:02:18.980Z,23.50
2022-10-16T13:05:03.101Z,23.51
2022-10-16T13:07:46.420Z,23.46
2022-10-16T13:10:28.791Z,23.43
2022-10-16T13:13:15.317Z,23.14
2022-10-16T13:16:00.656Z,23.33
2022-10-16T13:18:45.176Z,23.34
2022-10-16T13:21:30.175Z,23.16
2022-10-16T13:24:15.904Z,22.77
2022-10-16T13:26:57.353Z,22.63
2022-10-16T13:29:37.317Z,22.36
2022-10-16T13:32:19.495Z,22.16
2022-10-16T13:34:59.259Z,22.06
2022-10-16T13:37:39.000Z,21.84
2022-10-16T13:40:25.421Z,21.74
2022-10-16T13:43:04.261Z,21.55
2022-10-16T13:45:43.994Z,21.33
2022-10-16T13:48:26.475Z,20.97
2022-10-16T13:51:06.771Z,20.85
2022-10-16T13:53:47.331Z,20.72
2022-10-16T13:56:29.259Z,20.62
2022-10-16T13:59:24.973Z,20.35
2022-10-16T14:02:07.606Z,20.33
2022-10-16T14:04:50.483Z,20.18
2022-10-16T14:07:30.232Z,19.97
2022-10-16T14:10:22.178Z,19.98
2022-10-16T14:13:02.878Z,19.84
2022-10-16T14:15:41.939Z,19.84
2022-10-16T14:18:22.942Z,19.70
2022-10-16T14:21:22.383Z,19.65
2022-10-16T14:24:13.615Z,19.54
2022-10-16T14:26:57.408Z,19.56
2022-10-16T14:29:37.836Z,19.32
2022-10-16T14:32:28.329Z,19.21
2022-10-16T14:35:14.180Z,19.20
2022-10-16T14:37:58.620Z,19.12
2022-10-16T14:40:41.283Z,19.03
2022-10-16T14:43:22.155Z,18.98
2022-10-16T14:46:02.203Z,18.86
2022-10-16T14:48:43.616Z,18.81
2022-10-16T14:51:23.835Z,18.74
2022-10-16T14:54:03.713Z,18.68
2022-10-16T14:56:48.727Z,18.53
2022-10-16T14:59:49.100Z,18.41
2022-10-16T15:02:40.451Z,18.27
2022-10-16T15:05:19.662Z,18.27
2022-10-16T15:07:59.319Z,18.20
2022-10-16T15:10:40.365Z,18.15
2022-10-16T15:13:34.296Z,18.04
2022-10-16T15:16:15.205Z,17.90
2022-10-16T15:18:55.147Z,17.86
2022-10-16T15:21:35.116Z,17.84
2022-10-16T15:24:20.774Z,17.69
2022-10-16T15:27:03.396Z,17.62
2022-10-16T15:29:42.678Z,17.64
2022-10-16T15:32:22.194Z,17.53
2022-10-16T15:35:04.378Z,17.48
2022-10-16T15:37:43.387Z,17.42
2022-10-16T15:40:25.147Z,17.36
2022-10-16T15:43:04.575Z,17.27
2022-10-16T15:45:43.740Z,17.18
2022-10-16T15:48:22.620Z,17.02
2022-10-16T15:51:02.770Z,17.03
2022-10-16T15:53:42.233Z,16.97
2022-10-16T15:56:23.008Z,16.90
2022-10-16T15:59:03.222Z,16.83
2022-10-16T16:01:43.273Z,16.72
2022-10-16T16:04:42.900Z,16.64
2022-10-16T16:07:23.603Z,16.56
2022-10-16T16:10:07.041Z,16.44
2022-10-16T16:12:52.706Z,16.37
2022-10-16T16:15:34.686Z,16.26
2022-10-16T16:18:14.535Z,16.19
2022-10-16T16:20:54.200Z,16.08
2022-10-16T16:23:47.857Z,15.97
2022-10-16T16:26:48.027Z,15.85
2022-10-16T16:29:27.407Z,15.76
2022-10-16T16:32:07.919Z,15.64
2022-10-16T16:34:53.043Z,15.51
2022-10-16T16:37:33.582Z,15.42
2022-10-16T16:40:13.207Z,15.32
2022-10-16T16:42:55.851Z,15.19
2022-10-16T16:45:38.056Z,15.11
2022-10-16T16:48:18.166Z,15.00
2022-10-16T16:50:59.168Z,14.92
2022-10-16T16:53:54.889Z,14.87
2022-10-16T16:56:39.758Z,14.80
2022-10-16T16:59:22.864Z,14.76
2022-10-16T17:02:08.783Z,14.66
2022-10-16T17:04:48.979Z,14.65
2022-10-16T17:07:29.793Z,14.63
2022-10-16T17:10:10.248Z,14.57
2022-10-16T17:15:32.846Z,14.46
2022-10-16T17:18:25.150Z,14.42
2022-10-16T17:21:06.537Z,14.35
2022-10-16T17:23:45.561Z,14.32
2022-10-16T17:26:26.228Z,14.28
2022-10-16T17:29:05.430Z,14.23
2022-10-16T17:31:49.756Z,14.21
2022-10-16T17:34:32.356Z,14.06
2022-10-16T17:37:27.640Z,14.01
2022-10-16T17:40:11.026Z,14.06
2022-10-16T17:42:52.363Z,14.05
2022-10-16T17:45:31.929Z,14.04
2022-10-16T17:48:12.559Z,14.01
2022-10-16T17:50:53.478Z,14.00
2022-10-16T17:53:35.955Z,13.99
2022-10-16T17:56:18.496Z,13.98
2022-10-16T17:58:57.177Z,13.94
2022-10-16T18:01:38.125Z,13.93
2022-10-16T18:04:20.478Z,13.89
2022-10-16T18:07:02.132Z,13.88
2022-10-16T18:10:10.000Z,13.85
2022-10-16T18:12:44.027Z,13.83
2022-10-16T18:15:23.348Z,13.79
2022-10-16T18:18:03.068Z,13.80
2022-10-16T18:20:43.007Z,13.76
2022-10-16T18:23:24.820Z,13.69
2022-10-16T18:26:07.134Z,13.70
2022-10-16T18:28:52.745Z,13.70
2022-10-16T18:31:36.762Z,13.59
2022-10-16T18:34:18.411Z,13.63
2022-10-16T18:37:00.476Z,13.63
2022-10-16T18:39:39.219Z,13.62
2022-10-16T18:42:19.197Z,13.60
2022-10-16T18:44:59.226Z,13.59
2022-10-16T18:47:43.867Z,13.56
2022-10-16T18:50:27.485Z,13.53
2022-10-16T18:53:07.758Z,13.50
2022-10-16T18:55:55.076Z,13.48
2022-10-16T18:58:38.061Z,13.47
2022-10-16T19:01:21.509Z,13.45
2022-10-16T19:04:02.076Z,13.45
2022-10-16T19:06:42.714Z,13.43
2022-10-16T19:09:23.649Z,13.42
2022-10-16T19:12:07.012Z,13.40
2022-10-16T19:14:47.298Z,13.36
2022-10-16T19:17:26.620Z,13.36
2022-10-16T19:20:10.322Z,13.35
2022-10-16T19:22:59.236Z,13.33
2022-10-16T19:25:39.948Z,13.32
2022-10-16T19:28:18.984Z,13.30
2022-10-16T19:30:59.067Z,13.30
2022-10-16T19:33:54.313Z,13.29
2022-10-16T19:36:34.018Z,13.27
2022-10-16T19:39:14.045Z,13.27
2022-10-16T19:41:52.895Z,13.26
2022-10-16T19:44:34.733Z,13.24
2022-10-16T19:47:19.658Z,13.22
2022-10-16T19:50:02.010Z,13.21
2022-10-16T19:52:45.141Z,13.19
2022-10-16T19:55:25.339Z,13.16
2022-10-16T19:58:05.128Z,13.17
2022-10-16T20:00:48.941Z,13.15
2022-10-16T20:03:30.997Z,13.12
2022-10-16T20:06:10.610Z,13.12
2022-10-16T20:08:51.468Z,13.11
2022-10-16T20:11:35.498Z,13.10
2022-10-16T20:14:13.758Z,13.07
2022-10-16T20:16:53.950Z,13.07
2022-10-16T20:19:35.249Z,13.04
2022-10-16T20:22:13.468Z,13.04
2022-10-16T20:24:56.478Z,13.03
2022-10-16T20:27:37.635Z,13.01
2022-10-16T20:30:16.772Z,13.00
2022-10-16T20:33:01.490Z,13.00
2022-10-16T20:35:44.703Z,12.97
2022-10-16T20:38:27.115Z,12.96
2022-10-16T20:41:08.508Z,12.96
2022-10-16T20:43:52.823Z,12.96
2022-10-16T20:46:36.282Z,12.96
2022-10-16T20:49:35.706Z,12.96
2022-10-16T20:52:20.321Z,12.96
2022-10-16T20:54:59.653Z,12.96
2022-10-16T20:57:43.521Z,12.96
2022-10-16T21:00:28.583Z,12.96
2022-10-16T21:03:11.020Z,12.97
2022-10-16T21:05:53.502Z,12.98
2022-10-16T21:08:37.359Z,12.97
2022-10-16T21:11:17.479Z,12.97
2022-10-16T21:13:58.552Z,12.97
2022-10-16T21:16:37.425Z,12.98
2022-10-16T21:19:16.605Z,13.01
2022-10-16T21:21:56.408Z,12.99
2022-10-16T21:24:36.403Z,13.01
2022-10-16T21:27:20.700Z,13.04
2022-10-16T21:30:00.080Z,13.05
2022-10-16T21:32:40.014Z,13.09
2022-10-16T21:35:21.870Z,13.07
2022-10-16T21:38:01.613Z,13.10
2022-10-16T21:40:43.460Z,13.10
2022-10-16T21:43:25.005Z,13.13
2022-10-16T21:46:16.134Z,13.17
2022-10-16T21:48:57.245Z,13.16
2022-10-16T21:51:40.233Z,13.20
2022-10-16T21:54:21.516Z,13.24
2022-10-16T21:57:06.468Z,13.25
2022-10-16T21:59:45.261Z,13.25
2022-10-16T22:02:28.054Z,13.27
2022-10-16T22:05:08.659Z,13.31
2022-10-16T22:07:48.854Z,13.34
2022-10-16T22:10:41.095Z,13.34
2022-10-16T22:13:37.874Z,13.38
2022-10-16T22:16:21.591Z,13.38
2022-10-16T22:19:02.467Z,13.38
2022-10-16T22:21:41.823Z,13.38
2022-10-16T22:24:21.560Z,13.38
2022-10-16T22:27:01.292Z,13.40
2022-10-16T22:29:41.158Z,13.38
2022-10-16T22:32:21.088Z,13.40
2022-10-16T22:35:01.653Z,13.42
2022-10-16T22:37:40.516Z,13.45
2022-10-16T22:40:20.327Z,13.45
2022-10-16T22:43:03.308Z,13.46
2022-10-16T22:45:43.113Z,13.48
2022-10-16T22:48:22.881Z,13.48
2022-10-16T22:51:02.914Z,13.47
2022-10-16T22:53:42.759Z,13.39
2022-10-16T22:56:22.633Z,13.39
2022-10-16T22:59:02.186Z,13.46
2022-10-16T23:01:42.610Z,13.45
2022-10-16T23:04:21.756Z,13.48
2022-10-16T23:07:01.083Z,13.49
2022-10-16T23:09:40.024Z,13.50
2022-10-16T23:12:21.725Z,13.49
2022-10-16T23:15:02.115Z,13.49
2022-10-16T23:17:43.816Z,13.48
2022-10-16T23:20:24.168Z,13.50
2022-10-16T23:23:05.673Z,13.45
2022-10-16T23:25:47.768Z,13.36
2022-10-16T23:28:28.023Z,13.39
2022-10-16T23:31:08.106Z,13.28
2022-10-16T23:33:47.660Z,13.16
2022-10-16T23:36:39.367Z,13.15
2022-10-16T23:39:19.064Z,13.16
2022-10-16T23:41:58.866Z,13.10
2022-10-16T23:44:38.661Z,13.18
2022-10-16T23:47:18.440Z,13.13
2022-10-16T23:49:58.249Z,13.12
2022-10-16T23:52:38.079Z,13.13
2022-10-16T23:55:19.962Z,13.11
2022-10-16T23:57:59.489Z,13.06
